KEAT/EAT METAR and TAF weather

Enter ICAO airport designator
Station Type Date Time Source
KEAT METAR 2020/12/01 20:55 UTC NOAA

KEAT 012055Z AUTO 26004KT 10SM CLR 04/M03 A3059 RMK AO2 SLP369 T00441033 58010


Station Type Date Time Source
KEAT Decoded METAR 2020/12/01 20:55 UTC NOAA

WENATCHEE PANGBORN MEMO, WA, United States (KEAT) 47-24N 120-12W 377M
Dec 01, 2020 - 03:55 PM EST / 2020.12.01 2055 UTC
Wind: from the W (260 degrees) at 5 MPH (4 KT):0
Visibility: 10 mile(s):0
Sky conditions: clear
Temperature: 39.9 F (4.4 C)
Dew Point: 26.1 F (-3.3 C)
Relative Humidity: 57%
Pressure (altimeter): 30.59 in. Hg (1035 hPa)
Pressure tendency: 0.03 inches (1.0 hPa) lower than three hours ago
ob: KEAT 012055Z AUTO 26004KT 10SM CLR 04/M03 A3059 RMK AO2 SLP369 T00441033 58010
cycle: 21

Station Type Date Time Source
KEAT TAF 2020/12/01 18:57 UTC NOAA

TAF KEAT 011739Z 0118/0218 30005KT P6SM SCT250
FM011900 13005KT P6SM FEW250
FM020500 30006KT P6SM SCT010

Example: see airport list